createdAt,value
2023-03-23T15:58:50.944Z,30.24
2023-03-23T16:01:20.807Z,29.77
2023-03-23T16:03:56.595Z,29.37
2023-03-23T16:06:28.295Z,28.94
2023-03-23T16:08:56.775Z,29.92
2023-03-23T16:11:26.382Z,29.42
2023-03-23T16:13:53.404Z,30.15
2023-03-23T16:16:51.024Z,30.21
2023-03-23T16:19:24.759Z,29.99
2023-03-23T16:21:51.823Z,30.51
2023-03-23T16:24:19.307Z,30.38
2023-03-23T16:26:46.956Z,30.91
2023-03-23T16:29:33.709Z,30.69
2023-03-23T16:32:03.550Z,29.88
2023-03-23T16:34:33.840Z,29.94
2023-03-23T16:37:00.785Z,29.53
2023-03-23T16:39:29.732Z,30.20
2023-03-23T16:41:57.620Z,29.29
2023-03-23T16:44:24.571Z,28.60
2023-03-23T16:46:51.453Z,29.33
2023-03-23T16:49:25.407Z,29.08
2023-03-23T16:51:52.393Z,29.48
2023-03-23T16:54:19.252Z,29.92
2023-03-23T16:56:47.124Z,29.92
2023-03-23T16:59:15.975Z,29.42
2023-03-23T17:01:43.413Z,29.87
2023-03-23T17:04:11.118Z,29.91
2023-03-23T17:06:37.994Z,29.68
2023-03-23T17:09:04.892Z,30.93
2023-03-23T17:11:31.747Z,30.65
2023-03-23T17:13:58.569Z,29.59
2023-03-23T17:16:25.640Z,30.33
2023-03-23T17:18:52.555Z,30.60
2023-03-23T17:21:20.838Z,30.17
2023-03-23T17:23:47.717Z,30.02
2023-03-23T17:26:14.614Z,30.12
2023-03-23T17:28:41.533Z,30.52
2023-03-23T17:31:08.664Z,30.85
2023-03-23T17:33:35.616Z,31.71
2023-03-23T17:36:02.507Z,31.99
2023-03-23T17:38:29.424Z,31.35
2023-03-23T17:41:00.807Z,31.26
2023-03-23T17:43:28.101Z,31.96
2023-03-23T17:45:54.945Z,32.66
2023-03-23T17:48:22.016Z,33.20
2023-03-23T17:50:49.715Z,33.60
2023-03-23T17:53:18.635Z,34.68
2023-03-23T17:55:46.233Z,35.46
2023-03-23T17:58:13.220Z,35.08
2023-03-23T18:00:40.155Z,34.47
2023-03-23T18:03:07.129Z,34.64
2023-03-23T18:05:35.018Z,34.11
2023-03-23T18:08:01.868Z,34.71
2023-03-23T18:10:28.715Z,35.79
2023-03-23T18:12:55.725Z,36.00
2023-03-23T18:15:22.657Z,35.61
2023-03-23T18:17:58.380Z,36.03
2023-03-23T18:20:25.485Z,37.03
2023-03-23T18:22:52.443Z,37.23
2023-03-23T18:25:19.578Z,36.75
2023-03-23T18:27:46.443Z,37.09
2023-03-23T18:30:13.575Z,36.46
2023-03-23T18:32:40.923Z,36.56
2023-03-23T18:35:10.092Z,37.03
2023-03-23T18:37:39.541Z,37.49
2023-03-23T18:40:10.971Z,37.51
2023-03-23T18:42:41.337Z,36.18
2023-03-23T18:45:09.324Z,37.38
2023-03-23T18:47:37.836Z,39.13
2023-03-23T18:50:07.095Z,38.98
2023-03-23T18:52:34.271Z,38.60
2023-03-23T18:55:01.385Z,37.39
2023-03-23T18:57:28.492Z,39.08
2023-03-23T18:59:55.640Z,39.53
2023-03-23T19:02:22.624Z,39.93
2023-03-23T19:04:49.761Z,40.12
2023-03-23T19:07:17.633Z,39.48
2023-03-23T19:09:46.305Z,40.68
2023-03-23T19:12:13.430Z,40.86
2023-03-23T19:14:40.944Z,41.08
2023-03-23T19:17:08.154Z,41.96
2023-03-23T19:19:36.936Z,41.67
2023-03-23T19:22:05.774Z,40.87
2023-03-23T19:24:32.662Z,40.94
2023-03-23T19:27:00.204Z,41.24
2023-03-23T19:29:27.543Z,40.25
2023-03-23T19:31:55.973Z,40.74
2023-03-23T19:34:25.064Z,39.75
2023-03-23T19:36:56.281Z,40.93
2023-03-23T19:39:26.816Z,40.06
2023-03-23T19:41:53.817Z,40.26
2023-03-23T19:44:20.854Z,39.72
2023-03-23T19:46:48.406Z,38.32
2023-03-23T19:49:15.708Z,40.00
2023-03-23T19:51:42.593Z,42.46
2023-03-23T19:54:09.531Z,43.80
2023-03-23T19:56:36.983Z,45.06
2023-03-23T19:59:04.592Z,44.08
2023-03-23T20:01:32.082Z,43.18
2023-03-23T20:04:00.327Z,44.98
2023-03-23T20:06:29.299Z,44.07
2023-03-23T20:08:56.753Z,41.75
2023-03-23T20:11:23.773Z,40.05
2023-03-23T20:13:50.898Z,38.61
2023-03-23T20:16:18.250Z,39.29
2023-03-23T20:18:46.458Z,39.04
2023-03-23T20:21:22.377Z,40.51
2023-03-23T20:23:52.273Z,40.84
2023-03-23T20:26:23.232Z,41.10
2023-03-23T20:28:50.746Z,40.25
2023-03-23T20:31:23.169Z,39.68
2023-03-23T20:34:00.707Z,40.01
2023-03-23T20:36:45.283Z,39.89
2023-03-23T20:39:21.564Z,41.93
2023-03-23T20:41:50.921Z,44.35
2023-03-23T20:44:19.084Z,42.26
2023-03-23T20:46:47.346Z,43.03
2023-03-23T20:49:16.074Z,41.86
2023-03-23T20:51:43.847Z,42.24
2023-03-23T20:54:11.209Z,40.32
2023-03-23T20:56:40.594Z,40.99
2023-03-23T20:59:07.617Z,41.33
2023-03-23T21:01:35.119Z,42.33
2023-03-23T21:04:03.320Z,41.70
2023-03-23T21:06:31.194Z,42.26
2023-03-23T21:08:58.554Z,41.15
2023-03-23T21:11:27.013Z,41.27
2023-03-23T21:13:54.195Z,42.11
2023-03-23T21:16:21.331Z,42.63
2023-03-23T21:18:48.428Z,43.87
2023-03-23T21:21:18.439Z,43.99
2023-03-23T21:23:52.950Z,43.11
2023-03-23T21:26:22.719Z,45.34
2023-03-23T21:28:51.070Z,45.60
2023-03-23T21:31:18.397Z,44.03
2023-03-23T21:33:45.633Z,42.88
2023-03-23T21:36:12.881Z,43.06
2023-03-23T21:38:40.719Z,42.60
2023-03-23T21:41:10.844Z,44.08
2023-03-23T21:43:38.341Z,44.68
2023-03-23T21:46:06.123Z,42.38
2023-03-23T21:48:35.908Z,42.42
2023-03-23T21:51:10.323Z,42.49
2023-03-23T21:53:37.329Z,42.56
2023-03-23T21:56:06.372Z,42.48
2023-03-23T21:58:33.593Z,42.35
2023-03-23T22:01:02.458Z,43.87
2023-03-23T22:03:33.283Z,45.18
2023-03-23T22:06:09.265Z,44.79
2023-03-23T22:08:37.632Z,45.58
2023-03-23T22:11:07.588Z,46.55
2023-03-23T22:13:36.073Z,46.89
2023-03-23T22:16:04.270Z,47.89
2023-03-23T22:18:33.320Z,49.11
2023-03-23T22:21:00.603Z,49.05
2023-03-23T22:23:27.704Z,48.99
2023-03-23T22:25:55.969Z,49.21
2023-03-23T22:28:23.542Z,49.87
2023-03-23T22:30:50.579Z,51.00
2023-03-23T22:33:17.932Z,51.52
2023-03-23T22:35:47.376Z,50.74
2023-03-23T22:38:14.834Z,50.63
2023-03-23T22:40:42.828Z,50.67
2023-03-23T22:43:10.050Z,52.04
2023-03-23T22:45:37.013Z,51.60
2023-03-23T22:48:05.907Z,51.20
2023-03-23T22:50:32.892Z,51.50
2023-03-23T22:52:59.774Z,49.53
2023-03-23T22:55:27.250Z,49.70
2023-03-23T22:57:54.182Z,48.76
2023-03-23T23:00:21.117Z,46.23
2023-03-23T23:02:48.062Z,47.15
2023-03-23T23:05:15.335Z,47.43
2023-03-23T23:07:42.822Z,48.33
2023-03-23T23:10:09.811Z,49.82
2023-03-23T23:12:36.765Z,48.11
2023-03-23T23:15:06.065Z,47.57
2023-03-23T23:17:34.923Z,47.58
2023-03-23T23:20:05.702Z,44.11
2023-03-23T23:22:33.303Z,43.78
2023-03-23T23:25:00.811Z,42.21
2023-03-23T23:27:27.752Z,42.20
2023-03-23T23:29:54.742Z,43.57
2023-03-23T23:32:21.671Z,43.37
2023-03-23T23:34:48.678Z,44.05
2023-03-23T23:37:15.716Z,44.60
2023-03-23T23:39:42.689Z,44.82
2023-03-23T23:42:09.844Z,46.46
2023-03-23T23:44:37.392Z,46.63
2023-03-23T23:47:05.079Z,47.44
2023-03-23T23:49:34.371Z,46.89
2023-03-23T23:52:01.332Z,47.02
2023-03-23T23:54:31.323Z,45.72
2023-03-23T23:56:59.976Z,47.11
2023-03-23T23:59:27.346Z,46.96
